Time;durP1;ratioP1;P1;durP2;ratioP2;P2;SDS_P1;SDS_P2;PMS_P1;PMS_P2;Temp;Humidity;BMP_temperature;BMP_pressure;BME280_temperature;BME280_humidity;BME280_pressure;Samples;Min_cycle;Max_cycle;Signal;HPM_P1;HPM_P2
2022/05/20 00:04:22;;;;;;;22.77;19.70;;;;;;;;;;10007573;28;20100;-65
2022/05/20 00:09:18;;;;;;;21.77;18.25;;;;;;;;;;9966940;29;20075;-65
2022/05/20 00:14:15;;;;;;;20.48;18.38;;;;;;;;;;10015353;28;20134;-65
2022/05/20 00:19:11;;;;;;;24.67;19.27;;;;;;;;;;10014365;28;20048;-65
2022/05/20 00:24:10;;;;;;;21.42;18.20;;;;;;;;;;9992103;28;20048;-65
2022/05/20 00:29:06;;;;;;;22.15;19.35;;;;;;;;;;9992912;28;20072;-67
2022/05/20 00:34:03;;;;;;;23.52;20.02;;;;;;;;;;9991730;28;20063;-66
2022/05/20 00:38:59;;;;;;;20.40;18.20;;;;;;;;;;9984586;28;20536;-68
2022/05/20 00:43:55;;;;;;;24.42;20.10;;;;;;;;;;9988391;28;20671;-67
2022/05/20 00:49:12;;;;;;;26.08;22.40;;;;;;;;;;9991418;29;20067;-68
2022/05/20 00:54:11;;;;;;;29.25;23.67;;;;;;;;;;9988214;28;20064;-68
2022/05/20 00:59:10;;;;;;;29.45;23.60;;;;;;;;;;10008753;28;20568;-69
2022/05/20 01:04:06;;;;;;;26.30;22.48;;;;;;;;;;10010851;28;20065;-69
2022/05/20 01:09:03;;;;;;;27.30;23.42;;;;;;;;;;10006582;28;20422;-69
2022/05/20 01:13:59;;;;;;;29.15;23.95;;;;;;;;;;9984785;28;20050;-65
2022/05/20 01:18:57;;;;;;;35.92;27.45;;;;;;;;;;10015441;28;20064;-65
2022/05/20 01:24:03;;;;;;;34.25;26.63;;;;;;;;;;9991103;28;20135;-65
2022/05/20 01:28:59;;;;;;;37.63;27.13;;;;;;;;;;9986323;28;20075;-66
2022/05/20 01:33:55;;;;;;;37.83;28.20;;;;;;;;;;10004516;28;20473;-66
2022/05/20 01:38:52;;;;;;;40.70;30.73;;;;;;;;;;10042007;28;20071;-66
2022/05/20 01:43:53;;;;;;;36.03;29.42;;;;;;;;;;9990850;29;20045;-66
2022/05/20 01:48:59;;;;;;;30.05;24.38;;;;;;;;;;10015810;28;20048;-67
2022/05/20 01:53:59;;;;;;;30.13;24.05;;;;;;;;;;9999375;28;20069;-67
2022/05/20 01:59:02;;;;;;;27.30;20.27;;;;;;;;;;9964678;28;22040;-68
2022/05/20 02:04:12;;;;;;;29.10;21.08;;;;;;;;;;10009697;28;20061;-67
2022/05/20 02:09:11;;;;;;;25.83;19.83;;;;;;;;;;9990550;28;20076;-66
2022/05/20 02:14:23;;;;;;;27.05;18.23;;;;;;;;;;10009308;28;20138;-67
2022/05/20 02:19:23;;;;;;;28.58;19.13;;;;;;;;;;9978980;28;20087;-67
2022/05/20 02:24:21;;;;;;;27.88;21.05;;;;;;;;;;9998405;28;20090;-67
2022/05/20 02:29:20;;;;;;;23.92;17.95;;;;;;;;;;10014668;28;20068;-64
2022/05/20 02:34:16;;;;;;;19.45;14.25;;;;;;;;;;9997779;28;20054;-65
2022/05/20 02:39:15;;;;;;;15.35;11.95;;;;;;;;;;9993437;29;20082;-65
2022/05/20 02:44:12;;;;;;;15.63;10.30;;;;;;;;;;9998339;28;20496;-66
2022/05/20 02:49:08;;;;;;;13.15;9.05;;;;;;;;;;9976530;28;20084;-66
2022/05/20 02:54:05;;;;;;;14.10;9.38;;;;;;;;;;9972362;28;20139;-66
2022/05/20 03:04:16;;;;;;;16.05;9.52;;;;;;;;;;9990669;28;20075;-68
2022/05/20 03:09:14;;;;;;;14.15;9.80;;;;;;;;;;9988707;28;20510;-68
2022/05/20 03:14:11;;;;;;;12.82;9.77;;;;;;;;;;9983085;28;20082;-65
2022/05/20 03:19:07;;;;;;;15.38;9.30;;;;;;;;;;9988610;28;20122;-65
2022/05/20 03:24:05;;;;;;;13.02;8.43;;;;;;;;;;10000698;28;20117;-65
2022/05/20 03:29:04;;;;;;;11.40;7.07;;;;;;;;;;9972661;28;20084;-64
2022/05/20 03:34:05;;;;;;;9.82;5.15;;;;;;;;;;9980097;28;20070;-65
2022/05/20 03:39:02;;;;;;;18.67;6.88;;;;;;;;;;10105667;28;20102;-65
2022/05/20 03:43:58;;;;;;;15.98;6.13;;;;;;;;;;9996894;28;20042;-68
2022/05/20 03:48:56;;;;;;;10.80;5.30;;;;;;;;;;9977340;29;20053;-68
2022/05/20 03:53:52;;;;;;;12.10;5.60;;;;;;;;;;9985719;29;20128;-69
2022/05/20 03:58:48;;;;;;;10.10;4.75;;;;;;;;;;9978627;29;20068;-69
2022/05/20 04:03:45;;;;;;;9.95;4.47;;;;;;;;;;10004709;28;20510;-69
2022/05/20 04:08:41;;;;;;;12.02;4.70;;;;;;;;;;9971579;28;20040;-68
2022/05/20 04:13:39;;;;;;;13.52;4.93;;;;;;;;;;9958658;28;20127;-69
2022/05/20 04:18:35;;;;;;;8.60;4.15;;;;;;;;;;9963060;28;20049;-69
2022/05/20 04:23:32;;;;;;;10.77;4.07;;;;;;;;;;9971663;28;20467;-68
2022/05/20 04:28:28;;;;;;;10.15;3.97;;;;;;;;;;9976749;28;20052;-68
2022/05/20 04:33:25;;;;;;;9.57;4.40;;;;;;;;;;9973839;28;20048;-66
2022/05/20 04:38:22;;;;;;;10.80;4.75;;;;;;;;;;9969570;28;20054;-67
2022/05/20 04:48:38;;;;;;;11.73;4.53;;;;;;;;;;9957911;28;20087;-66
2022/05/20 04:58:49;;;;;;;12.25;4.25;;;;;;;;;;9969940;28;20148;-66
2022/05/20 05:03:45;;;;;;;9.05;4.07;;;;;;;;;;9975344;28;20099;-66
2022/05/20 05:08:42;;;;;;;12.48;4.28;;;;;;;;;;9979275;28;20170;-66
2022/05/20 05:13:38;;;;;;;9.30;3.88;;;;;;;;;;9982315;28;20052;-66
2022/05/20 05:18:36;;;;;;;8.35;2.95;;;;;;;;;;9968069;28;20080;-65
2022/05/20 05:23:32;;;;;;;9.85;3.63;;;;;;;;;;9966879;28;20044;-66
2022/05/20 05:28:29;;;;;;;9.63;3.33;;;;;;;;;;9962076;28;20142;-67
2022/05/20 05:33:25;;;;;;;9.63;4.47;;;;;;;;;;9969942;28;20091;-67
2022/05/20 05:38:22;;;;;;;10.38;4.30;;;;;;;;;;9971383;28;20155;-66
2022/05/20 05:43:18;;;;;;;11.23;4.40;;;;;;;;;;9965548;28;20084;-66
2022/05/20 05:48:17;;;;;;;9.75;3.92;;;;;;;;;;9960376;28;20142;-65
2022/05/20 05:53:15;;;;;;;9.15;3.30;;;;;;;;;;9969671;28;20562;-66
2022/05/20 05:58:13;;;;;;;9.20;3.67;;;;;;;;;;9974785;28;20486;-66
2022/05/20 06:03:11;;;;;;;10.23;3.08;;;;;;;;;;9974713;28;20048;-67
2022/05/20 06:08:08;;;;;;;10.27;3.22;;;;;;;;;;9966352;28;20513;-65
2022/05/20 06:13:04;;;;;;;8.10;2.20;;;;;;;;;;9974558;28;20200;-66
2022/05/20 06:18:01;;;;;;;5.55;1.85;;;;;;;;;;9957218;28;20079;-66
2022/05/20 06:22:57;;;;;;;13.15;3.00;;;;;;;;;;9970081;28;20091;-65
2022/05/20 06:27:54;;;;;;;7.80;1.98;;;;;;;;;;9977153;28;20133;-65
2022/05/20 06:32:50;;;;;;;8.25;2.28;;;;;;;;;;9960299;28;20102;-65
2022/05/20 06:43:05;;;;;;;8.23;1.70;;;;;;;;;;9978085;28;20040;-66
2022/05/20 06:48:03;;;;;;;8.32;1.95;;;;;;;;;;9992784;28;20079;-65
2022/05/20 06:53:00;;;;;;;8.65;1.67;;;;;;;;;;9991555;29;20139;-66
2022/05/20 06:57:56;;;;;;;11.02;2.88;;;;;;;;;;10006629;28;20164;-66
2022/05/20 07:02:52;;;;;;;7.93;1.92;;;;;;;;;;9979430;29;20127;-66
2022/05/20 07:07:49;;;;;;;7.72;2.05;;;;;;;;;;9978203;28;20064;-66
2022/05/20 07:12:45;;;;;;;6.10;1.50;;;;;;;;;;9963992;29;20063;-65
2022/05/20 07:17:45;;;;;;;7.00;1.50;;;;;;;;;;9975542;28;20098;-65
2022/05/20 07:22:42;;;;;;;4.50;1.33;;;;;;;;;;9983528;28;20447;-65
2022/05/20 07:27:39;;;;;;;6.70;1.60;;;;;;;;;;10035691;28;20081;-68
2022/05/20 07:32:35;;;;;;;6.28;1.20;;;;;;;;;;9988731;28;20080;-67
2022/05/20 07:37:32;;;;;;;8.30;1.50;;;;;;;;;;9993920;28;20099;-65
2022/05/20 07:42:29;;;;;;;8.23;1.77;;;;;;;;;;9995021;28;20063;-66
2022/05/20 07:47:26;;;;;;;7.85;1.67;;;;;;;;;;10001797;28;20044;-66
2022/05/20 07:57:45;;;;;;;5.78;1.58;;;;;;;;;;9954152;28;20845;-65
2022/05/20 08:02:42;;;;;;;7.90;2.83;;;;;;;;;;9975610;28;20131;-65
2022/05/20 08:07:44;;;;;;;8.07;1.52;;;;;;;;;;10036263;28;20048;-64
2022/05/20 08:12:40;;;;;;;9.27;1.75;;;;;;;;;;9983450;28;20102;-66
2022/05/20 08:17:40;;;;;;;7.63;1.77;;;;;;;;;;9971150;28;20620;-66
2022/05/20 08:22:36;;;;;;;6.63;1.80;;;;;;;;;;9969097;28;20098;-66
2022/05/20 08:27:33;;;;;;;6.60;1.50;;;;;;;;;;9997295;28;20836;-67
2022/05/20 08:32:30;;;;;;;7.95;1.80;;;;;;;;;;9981688;29;20052;-67
2022/05/20 08:37:26;;;;;;;7.32;1.75;;;;;;;;;;9970218;29;20127;-67
2022/05/20 08:42:27;;;;;;;5.88;1.42;;;;;;;;;;9979497;29;20102;-66
2022/05/20 08:47:43;;;;;;;4.60;1.10;;;;;;;;;;9967214;28;20040;-67
2022/05/20 08:52:41;;;;;;;6.82;1.52;;;;;;;;;;9963061;28;20514;-67
2022/05/20 08:57:38;;;;;;;5.80;1.50;;;;;;;;;;9965853;28;20091;-66
2022/05/20 09:02:35;;;;;;;5.05;1.95;;;;;;;;;;9962448;28;20045;-67
2022/05/20 09:07:51;;;;;;;9.45;1.80;;;;;;;;;;9955052;28;20052;-67
2022/05/20 09:13:04;;;;;;;10.27;1.87;;;;;;;;;;9946656;28;20055;-67
2022/05/20 09:18:11;;;;;;;4.72;1.25;;;;;;;;;;9970154;28;20098;-69
2022/05/20 09:23:09;;;;;;;4.63;1.38;;;;;;;;;;9989204;28;20099;-68
2022/05/20 09:28:24;;;;;;;5.25;1.40;;;;;;;;;;9995117;28;20581;-68
2022/05/20 09:33:22;;;;;;;5.30;1.60;;;;;;;;;;9962975;28;20055;-69
2022/05/20 09:38:39;;;;;;;7.22;1.60;;;;;;;;;;9960697;28;20057;-68
2022/05/20 09:43:40;;;;;;;9.98;2.42;;;;;;;;;;9959884;28;20541;-68
2022/05/20 09:48:49;;;;;;;5.80;1.92;;;;;;;;;;9957561;28;20233;-68
2022/05/20 09:54:02;;;;;;;6.82;1.55;;;;;;;;;;9978991;28;20677;-68
2022/05/20 09:59:03;;;;;;;5.28;1.40;;;;;;;;;;9978278;28;20083;-68
2022/05/20 10:04:03;;;;;;;4.30;1.25;;;;;;;;;;9975084;28;21018;-68
2022/05/20 10:09:02;;;;;;;6.63;1.60;;;;;;;;;;9977173;28;20103;-68
2022/05/20 10:14:02;;;;;;;5.53;1.60;;;;;;;;;;9977431;28;20122;-67
2022/05/20 10:19:04;;;;;;;7.35;1.75;;;;;;;;;;9974268;28;20135;-67
2022/05/20 10:24:10;;;;;;;10.00;1.55;;;;;;;;;;9978233;28;20055;-67
2022/05/20 10:34:21;;;;;;;4.95;1.25;;;;;;;;;;9984902;28;20044;-67
2022/05/20 10:39:21;;;;;;;5.03;1.17;;;;;;;;;;9970474;28;20585;-68
2022/05/20 10:49:57;;;;;;;7.75;1.50;;;;;;;;;;9962021;28;20048;-68
2022/05/20 10:55:04;;;;;;;4.55;1.33;;;;;;;;;;9957944;29;20533;-67
2022/05/20 11:00:05;;;;;;;4.63;1.17;;;;;;;;;;9956196;29;20064;-67
2022/05/20 11:05:03;;;;;;;5.25;1.30;;;;;;;;;;9953853;29;20111;-68
2022/05/20 11:10:17;;;;;;;4.35;1.50;;;;;;;;;;9953444;28;20135;-68
2022/05/20 11:15:26;;;;;;;5.18;1.83;;;;;;;;;;9976703;29;20473;-67
2022/05/20 11:20:22;;;;;;;6.65;1.70;;;;;;;;;;9981322;28;20079;-68
2022/05/20 11:25:28;;;;;;;6.20;1.67;;;;;;;;;;10018193;28;20083;-68
2022/05/20 11:30:43;;;;;;;5.22;1.70;;;;;;;;;;9982031;28;20049;-67
2022/05/20 11:35:50;;;;;;;5.13;1.60;;;;;;;;;;9962758;28;20055;-68
2022/05/20 11:40:52;;;;;;;3.88;1.23;;;;;;;;;;9978872;28;20045;-69
2022/05/20 11:45:49;;;;;;;5.82;2.08;;;;;;;;;;9990762;28;20127;-68
2022/05/20 11:51:04;;;;;;;3.95;1.60;;;;;;;;;;9999694;28;20040;-68
2022/05/20 11:56:02;;;;;;;4.72;1.50;;;;;;;;;;9975586;28;20126;-68
2022/05/20 12:00:59;;;;;;;6.28;1.90;;;;;;;;;;9985542;28;20118;-68
2022/05/20 12:05:56;;;;;;;5.90;1.30;;;;;;;;;;10004051;28;20714;-68
2022/05/20 12:10:53;;;;;;;6.68;1.48;;;;;;;;;;9990337;28;20042;-68
2022/05/20 12:16:09;;;;;;;5.38;1.80;;;;;;;;;;10008912;28;20137;-68
2022/05/20 12:26:23;;;;;;;5.65;2.13;;;;;;;;;;9975925;29;20072;-68
2022/05/20 12:31:19;;;;;;;4.78;1.70;;;;;;;;;;9981039;28;20045;-68
2022/05/20 12:36:39;;;;;;;6.60;2.13;;;;;;;;;;9981992;28;20056;-68
2022/05/20 12:41:50;;;;;;;5.50;1.70;;;;;;;;;;9991578;28;20091;-68
2022/05/20 12:47:04;;;;;;;7.13;1.90;;;;;;;;;;9973828;28;20049;-68
2022/05/20 12:52:25;;;;;;;4.57;1.70;;;;;;;;;;9997944;28;20146;-68
2022/05/20 12:57:25;;;;;;;6.45;2.00;;;;;;;;;;9987710;28;20158;-68
2022/05/20 13:02:21;;;;;;;6.07;1.92;;;;;;;;;;9990046;28;20072;-67
2022/05/20 13:07:18;;;;;;;7.93;1.77;;;;;;;;;;9988524;28;20513;-68
2022/05/20 13:12:20;;;;;;;5.93;1.90;;;;;;;;;;9981839;28;20135;-68
2022/05/20 13:17:20;;;;;;;5.28;2.03;;;;;;;;;;9968601;28;20140;-68
2022/05/20 13:22:21;;;;;;;8.27;2.00;;;;;;;;;;9959974;28;20064;-68
2022/05/20 13:27:18;;;;;;;5.30;2.20;;;;;;;;;;9973027;28;20084;-68
2022/05/20 13:32:17;;;;;;;5.32;2.05;;;;;;;;;;10009775;28;20072;-68
2022/05/20 13:37:15;;;;;;;5.35;2.60;;;;;;;;;;10020842;28;20102;-68
2022/05/20 13:42:13;;;;;;;7.50;2.22;;;;;;;;;;9958948;28;20051;-66
2022/05/20 13:52:26;;;;;;;6.10;2.00;;;;;;;;;;9963732;28;20572;-67
2022/05/20 13:57:52;;;;;;;6.90;2.80;;;;;;;;;;9961379;28;20119;-68
2022/05/20 14:02:50;;;;;;;7.13;2.75;;;;;;;;;;9983132;28;20898;-67
2022/05/20 14:07:49;;;;;;;6.30;2.38;;;;;;;;;;9961644;28;20056;-68
2022/05/20 14:12:47;;;;;;;6.32;2.05;;;;;;;;;;9965542;28;20044;-67
2022/05/20 14:17:43;;;;;;;6.18;2.40;;;;;;;;;;9992725;28;20390;-67
2022/05/20 14:22:41;;;;;;;7.30;3.25;;;;;;;;;;9971516;28;20569;-68
2022/05/20 14:27:39;;;;;;;5.88;1.90;;;;;;;;;;9965883;28;20049;-68
2022/05/20 14:32:36;;;;;;;5.32;2.47;;;;;;;;;;9974032;28;20048;-68
2022/05/20 14:37:33;;;;;;;7.78;3.00;;;;;;;;;;9960547;28;20392;-67
2022/05/20 14:42:31;;;;;;;6.10;2.20;;;;;;;;;;9987274;28;20143;-68
2022/05/20 14:47:34;;;;;;;6.82;1.80;;;;;;;;;;10005711;28;20144;-67
2022/05/20 14:52:33;;;;;;;4.35;1.30;;;;;;;;;;9974383;28;20101;-68
2022/05/20 14:57:32;;;;;;;5.53;1.40;;;;;;;;;;9957102;28;20056;-69
2022/05/20 15:02:28;;;;;;;3.67;1.10;;;;;;;;;;9964328;28;20090;-67
2022/05/20 15:07:25;;;;;;;6.28;1.55;;;;;;;;;;9978954;28;20056;-68
2022/05/20 15:12:23;;;;;;;4.30;1.42;;;;;;;;;;9956093;28;20403;-68
2022/05/20 15:17:19;;;;;;;3.17;1.13;;;;;;;;;;9969915;28;20083;-68
2022/05/20 15:22:17;;;;;;;5.80;1.05;;;;;;;;;;9974682;28;20598;-68
2022/05/20 15:27:23;;;;;;;6.13;1.40;;;;;;;;;;9982921;29;20130;-68
2022/05/20 15:37:40;;;;;;;3.55;1.10;;;;;;;;;;9987130;28;20693;-68
2022/05/20 15:42:38;;;;;;;4.65;1.38;;;;;;;;;;9987799;29;20068;-68
2022/05/20 15:47:40;;;;;;;4.18;1.30;;;;;;;;;;9975412;28;20057;-68
2022/05/20 15:52:41;;;;;;;3.10;1.10;;;;;;;;;;9957235;28;20087;-67
2022/05/20 15:57:39;;;;;;;5.00;1.35;;;;;;;;;;9954870;28;20159;-67
2022/05/20 16:02:40;;;;;;;3.10;1.33;;;;;;;;;;9956684;28;20114;-67
2022/05/20 16:07:36;;;;;;;2.72;1.00;;;;;;;;;;9959575;28;20086;-67
2022/05/20 16:12:33;;;;;;;5.75;1.70;;;;;;;;;;9955662;28;20514;-67
2022/05/20 16:17:30;;;;;;;4.57;1.40;;;;;;;;;;9953969;28;20053;-67
2022/05/20 16:22:28;;;;;;;4.63;1.35;;;;;;;;;;9950807;28;20247;-67
2022/05/20 16:27:26;;;;;;;3.83;1.45;;;;;;;;;;9952716;28;20088;-67
2022/05/20 16:32:22;;;;;;;4.38;1.70;;;;;;;;;;9974328;28;20106;-67
2022/05/20 16:37:19;;;;;;;4.55;1.50;;;;;;;;;;9998637;28;20072;-67
2022/05/20 16:42:15;;;;;;;4.40;1.27;;;;;;;;;;10003580;28;20076;-68
2022/05/20 16:47:11;;;;;;;3.75;1.38;;;;;;;;;;9993936;28;20150;-67
2022/05/20 16:52:09;;;;;;;4.60;1.30;;;;;;;;;;10004932;28;20052;-67
2022/05/20 17:02:22;;;;;;;6.72;1.73;;;;;;;;;;9953132;28;20095;-67
2022/05/20 17:07:18;;;;;;;6.78;2.45;;;;;;;;;;9957539;28;20837;-65
2022/05/20 17:12:17;;;;;;;5.57;2.00;;;;;;;;;;9955566;28;20052;-66
2022/05/20 17:17:13;;;;;;;5.63;1.77;;;;;;;;;;9954758;28;20143;-67
2022/05/20 17:27:26;;;;;;;5.65;2.33;;;;;;;;;;9955883;28;20103;-67
2022/05/20 17:32:25;;;;;;;5.22;2.70;;;;;;;;;;9945453;28;20053;-67
2022/05/20 17:37:22;;;;;;;6.53;2.60;;;;;;;;;;9957554;28;20052;-68
2022/05/20 17:42:19;;;;;;;4.85;1.80;;;;;;;;;;9958296;28;20411;-67
2022/05/20 17:47:16;;;;;;;7.35;2.17;;;;;;;;;;9956837;28;20144;-67
2022/05/20 17:52:13;;;;;;;8.45;2.05;;;;;;;;;;9953926;28;20057;-67
2022/05/20 17:57:11;;;;;;;5.30;1.95;;;;;;;;;;9950856;28;20573;-68
2022/05/20 18:02:07;;;;;;;5.80;2.10;;;;;;;;;;9952802;28;20040;-67
2022/05/20 18:07:04;;;;;;;5.38;1.88;;;;;;;;;;9949096;28;20132;-67
2022/05/20 18:12:11;;;;;;;4.70;1.67;;;;;;;;;;9941014;28;20057;-67
2022/05/20 18:17:08;;;;;;;8.10;4.50;;;;;;;;;;9942166;28;20048;-67
2022/05/20 18:22:06;;;;;;;6.18;2.42;;;;;;;;;;9941838;28;20131;-67
2022/05/20 18:27:04;;;;;;;6.30;2.22;;;;;;;;;;9950004;28;20123;-67
2022/05/20 18:32:00;;;;;;;5.97;2.10;;;;;;;;;;9950781;28;20164;-67
2022/05/20 18:42:12;;;;;;;5.80;2.40;;;;;;;;;;9952978;28;20076;-65
2022/05/20 18:47:08;;;;;;;6.50;2.75;;;;;;;;;;9956607;28;20087;-67
2022/05/20 18:52:05;;;;;;;5.68;2.50;;;;;;;;;;9963118;28;20084;-66
2022/05/20 18:57:04;;;;;;;5.60;2.10;;;;;;;;;;9966272;28;20076;-65
2022/05/20 19:02:01;;;;;;;6.10;2.40;;;;;;;;;;9986506;28;20129;-64
2022/05/20 19:06:57;;;;;;;6.80;2.75;;;;;;;;;;9964659;28;20383;-65
2022/05/20 19:11:53;;;;;;;6.20;2.40;;;;;;;;;;10010132;28;20131;-65
2022/05/20 19:16:50;;;;;;;6.35;2.88;;;;;;;;;;9987898;28;20059;-66
2022/05/20 19:21:47;;;;;;;5.95;2.80;;;;;;;;;;10022521;28;20106;-65
2022/05/20 19:26:43;;;;;;;8.75;3.65;;;;;;;;;;10045316;28;20114;-65
2022/05/20 19:31:40;;;;;;;6.40;3.72;;;;;;;;;;10043124;28;20080;-66
2022/05/20 19:36:36;;;;;;;5.80;3.90;;;;;;;;;;9950808;28;20048;-66
2022/05/20 19:41:33;;;;;;;7.40;4.60;;;;;;;;;;9946745;28;20059;-65
2022/05/20 19:46:29;;;;;;;9.25;5.18;;;;;;;;;;9968666;28;20461;-65
2022/05/20 19:51:27;;;;;;;12.35;5.32;;;;;;;;;;9962200;28;20083;-65
2022/05/20 19:56:23;;;;;;;10.95;6.63;;;;;;;;;;9967652;28;20126;-65
2022/05/20 20:01:20;;;;;;;10.23;6.20;;;;;;;;;;9986560;29;20501;-66
2022/05/20 20:06:17;;;;;;;17.58;6.88;;;;;;;;;;9977759;28;20048;-65
2022/05/20 20:11:15;;;;;;;10.32;7.40;;;;;;;;;;9986158;29;20098;-65
2022/05/20 20:16:11;;;;;;;11.25;6.50;;;;;;;;;;9992505;28;20046;-64
2022/05/20 20:26:23;;;;;;;10.20;6.38;;;;;;;;;;10001372;28;20131;-65
2022/05/20 20:31:20;;;;;;;14.02;8.75;;;;;;;;;;9985858;29;20421;-65
2022/05/20 20:36:17;;;;;;;12.75;9.02;;;;;;;;;;9980383;28;20052;-65
2022/05/20 20:41:14;;;;;;;10.77;7.90;;;;;;;;;;9961754;29;20647;-63
2022/05/20 20:46:11;;;;;;;14.07;7.57;;;;;;;;;;9970536;28;20116;-63
2022/05/20 20:51:08;;;;;;;10.55;7.20;;;;;;;;;;9977262;28;20054;-65
2022/05/20 20:56:05;;;;;;;11.52;8.05;;;;;;;;;;9953671;28;20049;-63
2022/05/20 21:01:01;;;;;;;12.73;9.38;;;;;;;;;;9969750;28;20140;-64
2022/05/20 21:05:58;;;;;;;15.07;12.32;;;;;;;;;;9967339;28;20056;-64
2022/05/20 21:10:54;;;;;;;15.40;13.80;;;;;;;;;;9988821;28;20077;-63
2022/05/20 21:15:51;;;;;;;19.92;17.70;;;;;;;;;;9987771;28;20103;-64
2022/05/20 21:20:48;;;;;;;15.15;13.50;;;;;;;;;;9970621;28;20060;-64
2022/05/20 21:25:44;;;;;;;14.85;12.02;;;;;;;;;;9968789;28;20064;-65
2022/05/20 21:30:41;;;;;;;11.75;10.55;;;;;;;;;;9963399;28;20837;-64
2022/05/20 21:35:39;;;;;;;8.95;7.88;;;;;;;;;;9964191;28;20741;-66
2022/05/20 21:40:36;;;;;;;12.70;8.05;;;;;;;;;;9954983;28;20044;-65
2022/05/20 21:45:32;;;;;;;8.20;4.85;;;;;;;;;;10000908;28;20131;-66
2022/05/20 21:50:29;;;;;;;4.75;3.58;;;;;;;;;;9981564;29;20119;-65
2022/05/20 21:55:25;;;;;;;5.10;3.80;;;;;;;;;;10049177;28;20089;-66
2022/05/20 22:00:27;;;;;;;5.80;3.70;;;;;;;;;;9995729;28;20110;-66
2022/05/20 22:10:38;;;;;;;7.82;6.07;;;;;;;;;;9972681;29;20484;-62
2022/05/20 22:15:34;;;;;;;9.50;6.88;;;;;;;;;;10041214;28;20053;-66
2022/05/20 22:20:31;;;;;;;13.45;10.20;;;;;;;;;;9990910;29;20514;-66
2022/05/20 22:25:27;;;;;;;14.48;10.88;;;;;;;;;;10047107;28;20729;-66
2022/05/20 22:30:43;;;;;;;16.45;10.52;;;;;;;;;;10058119;28;20493;-66
2022/05/20 22:35:40;;;;;;;14.80;9.80;;;;;;;;;;9996380;28;20175;-66
2022/05/20 22:40:36;;;;;;;14.95;11.60;;;;;;;;;;9983902;29;20574;-66
2022/05/20 22:45:32;;;;;;;12.18;10.45;;;;;;;;;;10000214;28;20078;-64
2022/05/20 22:50:29;;;;;;;14.55;7.72;;;;;;;;;;9988898;28;20057;-64
2022/05/20 23:00:40;;;;;;;11.50;7.10;;;;;;;;;;10072889;28;20146;-63
2022/05/20 23:05:36;;;;;;;12.98;6.75;;;;;;;;;;9982413;29;20068;-64
2022/05/20 23:10:33;;;;;;;8.50;5.80;;;;;;;;;;9984979;29;20574;-65
2022/05/20 23:15:41;;;;;;;11.48;6.63;;;;;;;;;;10038591;28;20112;-65
2022/05/20 23:20:39;;;;;;;16.63;5.80;;;;;;;;;;9972937;28;20143;-64
2022/05/20 23:25:36;;;;;;;11.57;4.72;;;;;;;;;;10031942;28;20507;-62
2022/05/20 23:30:33;;;;;;;10.82;3.75;;;;;;;;;;9989415;28;20128;-63
2022/05/20 23:35:31;;;;;;;6.53;2.58;;;;;;;;;;10012808;28;20576;-65
2022/05/20 23:40:27;;;;;;;9.48;2.70;;;;;;;;;;9988376;29;20098;-66
2022/05/20 23:45:23;;;;;;;9.05;2.90;;;;;;;;;;10001173;28;20072;-65
2022/05/20 23:50:20;;;;;;;8.10;2.08;;;;;;;;;;9985570;29;20078;-65
